sensor_id;sensor_type;location;lat;lon;timestamp;P1;durP1;ratioP1;P2;durP2;ratioP2
64950;SDS011;51482;47.014;7.652;2022-08-25T00:00:45;3.65;;;3.35;;
64950;SDS011;51482;47.014;7.652;2022-08-25T00:03:13;4.65;;;3.30;;
64950;SDS011;51482;47.014;7.652;2022-08-25T00:05:40;3.75;;;3.40;;
64950;SDS011;51482;47.014;7.652;2022-08-25T00:08:05;3.97;;;3.58;;
64950;SDS011;51482;47.014;7.652;2022-08-25T00:10:32;3.75;;;3.40;;
64950;SDS011;51482;47.014;7.652;2022-08-25T00:13:00;3.50;;;3.20;;
64950;SDS011;51482;47.014;7.652;2022-08-25T00:15:26;3.45;;;3.15;;
64950;SDS011;51482;47.014;7.652;2022-08-25T00:17:53;5.10;;;3.60;;
64950;SDS011;51482;47.014;7.652;2022-08-25T00:20:19;3.60;;;3.28;;
64950;SDS011;51482;47.014;7.652;2022-08-25T00:22:45;3.85;;;3.25;;
64950;SDS011;51482;47.014;7.652;2022-08-25T00:25:10;5.90;;;3.45;;
64950;SDS011;51482;47.014;7.652;2022-08-25T00:27:36;4.72;;;3.40;;
64950;SDS011;51482;47.014;7.652;2022-08-25T00:30:03;4.47;;;3.25;;
64950;SDS011;51482;47.014;7.652;2022-08-25T00:32:29;5.10;;;3.40;;
64950;SDS011;51482;47.014;7.652;2022-08-25T00:34:55;4.50;;;3.80;;
64950;SDS011;51482;47.014;7.652;2022-08-25T00:37:21;4.43;;;3.55;;
64950;SDS011;51482;47.014;7.652;2022-08-25T00:39:47;4.40;;;3.63;;
64950;SDS011;51482;47.014;7.652;2022-08-25T00:42:13;4.15;;;3.75;;
64950;SDS011;51482;47.014;7.652;2022-08-25T00:44:39;4.88;;;3.70;;
64950;SDS011;51482;47.014;7.652;2022-08-25T00:47:05;3.70;;;3.40;;
64950;SDS011;51482;47.014;7.652;2022-08-25T00:49:37;3.80;;;3.50;;
64950;SDS011;51482;47.014;7.652;2022-08-25T00:52:11;3.28;;;3.08;;
64950;SDS011;51482;47.014;7.652;2022-08-25T00:54:40;3.90;;;3.50;;
64950;SDS011;51482;47.014;7.652;2022-08-25T00:57:12;3.70;;;3.40;;
64950;SDS011;51482;47.014;7.652;2022-08-25T00:59:40;3.47;;;3.17;;
64950;SDS011;51482;47.014;7.652;2022-08-25T01:02:07;3.92;;;3.63;;
64950;SDS011;51482;47.014;7.652;2022-08-25T01:04:34;4.90;;;3.65;;
64950;SDS011;51482;47.014;7.652;2022-08-25T01:07:00;5.68;;;4.65;;
64950;SDS011;51482;47.014;7.652;2022-08-25T01:09:27;6.70;;;4.60;;
64950;SDS011;51482;47.014;7.652;2022-08-25T01:11:55;4.68;;;4.25;;
64950;SDS011;51482;47.014;7.652;2022-08-25T01:14:20;4.60;;;4.18;;
64950;SDS011;51482;47.014;7.652;2022-08-25T01:16:48;4.93;;;3.67;;
64950;SDS011;51482;47.014;7.652;2022-08-25T01:19:14;5.20;;;3.67;;
64950;SDS011;51482;47.014;7.652;2022-08-25T01:21:42;4.05;;;3.53;;
64950;SDS011;51482;47.014;7.652;2022-08-25T01:24:56;3.70;;;3.28;;
64950;SDS011;51482;47.014;7.652;2022-08-25T01:27:05;4.07;;;3.42;;
64950;SDS011;51482;47.014;7.652;2022-08-25T01:29:31;5.10;;;4.00;;
64950;SDS011;51482;47.014;7.652;2022-08-25T01:31:59;3.90;;;3.53;;
64950;SDS011;51482;47.014;7.652;2022-08-25T01:34:32;4.45;;;3.63;;
64950;SDS011;51482;47.014;7.652;2022-08-25T01:37:00;3.83;;;3.50;;
64950;SDS011;51482;47.014;7.652;2022-08-25T01:39:27;4.00;;;3.70;;
64950;SDS011;51482;47.014;7.652;2022-08-25T01:42:08;3.67;;;3.40;;
64950;SDS011;51482;47.014;7.652;2022-08-25T01:44:53;4.72;;;3.70;;
64950;SDS011;51482;47.014;7.652;2022-08-25T01:47:19;4.30;;;3.90;;
64950;SDS011;51482;47.014;7.652;2022-08-25T01:49:44;3.90;;;3.60;;
64950;SDS011;51482;47.014;7.652;2022-08-25T01:52:14;4.95;;;4.03;;
64950;SDS011;51482;47.014;7.652;2022-08-25T01:54:53;4.18;;;3.63;;
64950;SDS011;51482;47.014;7.652;2022-08-25T01:57:19;4.25;;;3.90;;
64950;SDS011;51482;47.014;7.652;2022-08-25T01:59:45;6.00;;;4.00;;
64950;SDS011;51482;47.014;7.652;2022-08-25T02:02:11;5.47;;;3.95;;
64950;SDS011;51482;47.014;7.652;2022-08-25T02:04:37;6.00;;;4.45;;
64950;SDS011;51482;47.014;7.652;2022-08-25T02:07:04;5.40;;;4.65;;
64950;SDS011;51482;47.014;7.652;2022-08-25T02:09:31;4.95;;;4.45;;
64950;SDS011;51482;47.014;7.652;2022-08-25T02:11:57;6.38;;;4.10;;
64950;SDS011;51482;47.014;7.652;2022-08-25T02:14:23;4.30;;;3.90;;
64950;SDS011;51482;47.014;7.652;2022-08-25T02:16:49;5.20;;;4.13;;
64950;SDS011;51482;47.014;7.652;2022-08-25T02:19:16;4.22;;;3.92;;
64950;SDS011;51482;47.014;7.652;2022-08-25T02:21:43;4.53;;;3.88;;
64950;SDS011;51482;47.014;7.652;2022-08-25T02:24:09;4.45;;;4.05;;
64950;SDS011;51482;47.014;7.652;2022-08-25T02:26:35;5.10;;;4.32;;
64950;SDS011;51482;47.014;7.652;2022-08-25T02:29:02;3.90;;;3.60;;
64950;SDS011;51482;47.014;7.652;2022-08-25T02:31:28;4.43;;;4.00;;
64950;SDS011;51482;47.014;7.652;2022-08-25T02:33:54;4.85;;;4.20;;
64950;SDS011;51482;47.014;7.652;2022-08-25T02:36:20;5.63;;;4.88;;
64950;SDS011;51482;47.014;7.652;2022-08-25T02:38:47;5.45;;;4.45;;
64950;SDS011;51482;47.014;7.652;2022-08-25T02:41:17;4.60;;;4.20;;
64950;SDS011;51482;47.014;7.652;2022-08-25T02:43:45;3.88;;;3.58;;
64950;SDS011;51482;47.014;7.652;2022-08-25T02:46:13;4.80;;;3.90;;
64950;SDS011;51482;47.014;7.652;2022-08-25T02:48:40;4.40;;;4.00;;
64950;SDS011;51482;47.014;7.652;2022-08-25T02:51:06;4.88;;;4.32;;
64950;SDS011;51482;47.014;7.652;2022-08-25T02:53:34;6.55;;;4.15;;
64950;SDS011;51482;47.014;7.652;2022-08-25T02:56:03;4.10;;;3.78;;
64950;SDS011;51482;47.014;7.652;2022-08-25T02:58:29;3.80;;;3.50;;
64950;SDS011;51482;47.014;7.652;2022-08-25T03:00:55;4.03;;;3.72;;
64950;SDS011;51482;47.014;7.652;2022-08-25T03:03:20;4.70;;;4.25;;
64950;SDS011;51482;47.014;7.652;2022-08-25T03:05:46;4.28;;;3.88;;
64950;SDS011;51482;47.014;7.652;2022-08-25T03:08:12;5.55;;;3.88;;
64950;SDS011;51482;47.014;7.652;2022-08-25T03:10:38;4.30;;;3.90;;
64950;SDS011;51482;47.014;7.652;2022-08-25T03:13:04;6.03;;;4.30;;
64950;SDS011;51482;47.014;7.652;2022-08-25T03:15:30;5.72;;;3.50;;
64950;SDS011;51482;47.014;7.652;2022-08-25T03:17:56;4.80;;;4.30;;
64950;SDS011;51482;47.014;7.652;2022-08-25T03:20:23;7.03;;;4.20;;
64950;SDS011;51482;47.014;7.652;2022-08-25T03:22:50;4.43;;;4.03;;
64950;SDS011;51482;47.014;7.652;2022-08-25T03:25:16;4.28;;;3.88;;
64950;SDS011;51482;47.014;7.652;2022-08-25T03:28:06;4.45;;;4.07;;
64950;SDS011;51482;47.014;7.652;2022-08-25T03:30:33;5.63;;;4.18;;
64950;SDS011;51482;47.014;7.652;2022-08-25T03:32:59;5.05;;;3.80;;
64950;SDS011;51482;47.014;7.652;2022-08-25T03:35:24;4.60;;;4.20;;
64950;SDS011;51482;47.014;7.652;2022-08-25T03:37:54;4.55;;;4.15;;
64950;SDS011;51482;47.014;7.652;2022-08-25T03:40:23;5.38;;;4.57;;
64950;SDS011;51482;47.014;7.652;2022-08-25T03:42:50;4.57;;;4.03;;
64950;SDS011;51482;47.014;7.652;2022-08-25T03:45:16;4.70;;;4.30;;
64950;SDS011;51482;47.014;7.652;2022-08-25T03:47:46;4.22;;;3.92;;
64950;SDS011;51482;47.014;7.652;2022-08-25T03:50:13;4.78;;;4.38;;
64950;SDS011;51482;47.014;7.652;2022-08-25T03:52:40;4.35;;;3.90;;
64950;SDS011;51482;47.014;7.652;2022-08-25T03:55:07;5.30;;;4.25;;
64950;SDS011;51482;47.014;7.652;2022-08-25T03:57:35;5.38;;;4.18;;
64950;SDS011;51482;47.014;7.652;2022-08-25T04:00:01;4.60;;;4.20;;
64950;SDS011;51482;47.014;7.652;2022-08-25T04:02:28;4.45;;;4.05;;
64950;SDS011;51482;47.014;7.652;2022-08-25T04:04:55;4.88;;;4.35;;
64950;SDS011;51482;47.014;7.652;2022-08-25T04:07:20;5.07;;;4.50;;
64950;SDS011;51482;47.014;7.652;2022-08-25T04:09:46;5.35;;;4.93;;
64950;SDS011;51482;47.014;7.652;2022-08-25T04:12:11;5.25;;;4.32;;
64950;SDS011;51482;47.014;7.652;2022-08-25T04:14:37;4.95;;;4.45;;
64950;SDS011;51482;47.014;7.652;2022-08-25T04:17:06;4.63;;;4.20;;
64950;SDS011;51482;47.014;7.652;2022-08-25T04:19:32;4.57;;;4.18;;
64950;SDS011;51482;47.014;7.652;2022-08-25T04:22:00;4.80;;;4.30;;
64950;SDS011;51482;47.014;7.652;2022-08-25T04:24:26;7.20;;;4.43;;
64950;SDS011;51482;47.014;7.652;2022-08-25T04:26:51;6.85;;;4.82;;
64950;SDS011;51482;47.014;7.652;2022-08-25T04:29:21;6.65;;;4.70;;
64950;SDS011;51482;47.014;7.652;2022-08-25T04:31:48;4.88;;;4.47;;
64950;SDS011;51482;47.014;7.652;2022-08-25T04:34:15;4.32;;;4.00;;
64950;SDS011;51482;47.014;7.652;2022-08-25T04:36:42;4.55;;;4.15;;
64950;SDS011;51482;47.014;7.652;2022-08-25T04:39:08;5.13;;;4.65;;
64950;SDS011;51482;47.014;7.652;2022-08-25T04:41:34;7.55;;;4.47;;
64950;SDS011;51482;47.014;7.652;2022-08-25T04:44:01;4.93;;;4.45;;
64950;SDS011;51482;47.014;7.652;2022-08-25T04:46:28;4.72;;;4.18;;
64950;SDS011;51482;47.014;7.652;2022-08-25T04:48:58;5.13;;;4.63;;
64950;SDS011;51482;47.014;7.652;2022-08-25T04:51:32;6.70;;;3.95;;
64950;SDS011;51482;47.014;7.652;2022-08-25T04:54:01;6.22;;;4.18;;
64950;SDS011;51482;47.014;7.652;2022-08-25T04:56:29;5.10;;;4.65;;
64950;SDS011;51482;47.014;7.652;2022-08-25T04:59:00;4.82;;;4.38;;
64950;SDS011;51482;47.014;7.652;2022-08-25T05:01:32;6.78;;;4.43;;
64950;SDS011;51482;47.014;7.652;2022-08-25T05:04:00;5.60;;;4.55;;
64950;SDS011;51482;47.014;7.652;2022-08-25T05:06:28;7.50;;;4.25;;
64950;SDS011;51482;47.014;7.652;2022-08-25T05:08:54;4.90;;;4.40;;
64950;SDS011;51482;47.014;7.652;2022-08-25T05:11:21;4.57;;;4.18;;
64950;SDS011;51482;47.014;7.652;2022-08-25T05:13:48;4.72;;;4.32;;
64950;SDS011;51482;47.014;7.652;2022-08-25T05:16:16;4.60;;;4.20;;
64950;SDS011;51482;47.014;7.652;2022-08-25T05:18:42;4.53;;;4.13;;
64950;SDS011;51482;47.014;7.652;2022-08-25T05:21:16;4.70;;;4.30;;
64950;SDS011;51482;47.014;7.652;2022-08-25T05:23:47;5.15;;;4.35;;
64950;SDS011;51482;47.014;7.652;2022-08-25T05:26:18;4.65;;;4.00;;
64950;SDS011;51482;47.014;7.652;2022-08-25T05:28:50;4.20;;;3.67;;
64950;SDS011;51482;47.014;7.652;2022-08-25T05:31:16;3.78;;;3.22;;
64950;SDS011;51482;47.014;7.652;2022-08-25T05:33:43;5.03;;;4.40;;
64950;SDS011;51482;47.014;7.652;2022-08-25T05:36:10;3.83;;;3.53;;
64950;SDS011;51482;47.014;7.652;2022-08-25T05:38:37;12.18;;;4.57;;
64950;SDS011;51482;47.014;7.652;2022-08-25T05:41:06;8.13;;;4.18;;
64950;SDS011;51482;47.014;7.652;2022-08-25T05:43:35;9.05;;;3.60;;
64950;SDS011;51482;47.014;7.652;2022-08-25T05:46:01;4.20;;;3.80;;
64950;SDS011;51482;47.014;7.652;2022-08-25T05:48:27;5.82;;;3.50;;
64950;SDS011;51482;47.014;7.652;2022-08-25T05:50:53;4.15;;;3.85;;
64950;SDS011;51482;47.014;7.652;2022-08-25T05:53:21;4.60;;;3.67;;
64950;SDS011;51482;47.014;7.652;2022-08-25T05:55:48;4.32;;;3.78;;
64950;SDS011;51482;47.014;7.652;2022-08-25T05:58:15;4.30;;;3.63;;
64950;SDS011;51482;47.014;7.652;2022-08-25T06:00:41;4.20;;;3.63;;
64950;SDS011;51482;47.014;7.652;2022-08-25T06:03:06;4.05;;;3.75;;
64950;SDS011;51482;47.014;7.652;2022-08-25T06:05:32;4.32;;;3.42;;
64950;SDS011;51482;47.014;7.652;2022-08-25T06:07:58;4.55;;;3.60;;
64950;SDS011;51482;47.014;7.652;2022-08-25T06:10:23;4.40;;;4.00;;
64950;SDS011;51482;47.014;7.652;2022-08-25T06:12:50;4.60;;;4.20;;
64950;SDS011;51482;47.014;7.652;2022-08-25T06:15:16;4.15;;;3.85;;
64950;SDS011;51482;47.014;7.652;2022-08-25T06:17:45;6.03;;;3.88;;
64950;SDS011;51482;47.014;7.652;2022-08-25T06:20:13;5.03;;;3.83;;
64950;SDS011;51482;47.014;7.652;2022-08-25T06:22:40;6.85;;;4.13;;
64950;SDS011;51482;47.014;7.652;2022-08-25T06:25:07;5.25;;;3.97;;
64950;SDS011;51482;47.014;7.652;2022-08-25T06:27:34;5.63;;;4.10;;
64950;SDS011;51482;47.014;7.652;2022-08-25T06:29:59;4.63;;;4.13;;
64950;SDS011;51482;47.014;7.652;2022-08-25T06:32:32;5.80;;;4.53;;
64950;SDS011;51482;47.014;7.652;2022-08-25T06:35:03;5.05;;;4.45;;
64950;SDS011;51482;47.014;7.652;2022-08-25T06:37:32;5.53;;;4.43;;
64950;SDS011;51482;47.014;7.652;2022-08-25T06:39:58;6.18;;;4.78;;
64950;SDS011;51482;47.014;7.652;2022-08-25T06:42:24;5.72;;;4.53;;
64950;SDS011;51482;47.014;7.652;2022-08-25T06:44:49;5.13;;;4.38;;
64950;SDS011;51482;47.014;7.652;2022-08-25T06:47:15;6.50;;;4.75;;
64950;SDS011;51482;47.014;7.652;2022-08-25T06:49:41;5.65;;;4.72;;
64950;SDS011;51482;47.014;7.652;2022-08-25T06:52:08;5.32;;;4.40;;
64950;SDS011;51482;47.014;7.652;2022-08-25T06:54:34;5.55;;;5.05;;
64950;SDS011;51482;47.014;7.652;2022-08-25T06:56:59;4.88;;;4.45;;
64950;SDS011;51482;47.014;7.652;2022-08-25T06:59:26;5.15;;;4.30;;
64950;SDS011;51482;47.014;7.652;2022-08-25T07:01:52;4.82;;;4.43;;
64950;SDS011;51482;47.014;7.652;2022-08-25T07:04:17;4.97;;;4.57;;
64950;SDS011;51482;47.014;7.652;2022-08-25T07:06:43;4.63;;;4.22;;
64950;SDS011;51482;47.014;7.652;2022-08-25T07:09:09;4.88;;;4.28;;
64950;SDS011;51482;47.014;7.652;2022-08-25T07:11:37;4.85;;;4.43;;
64950;SDS011;51482;47.014;7.652;2022-08-25T07:14:06;5.45;;;4.43;;
64950;SDS011;51482;47.014;7.652;2022-08-25T07:16:33;5.72;;;4.38;;
64950;SDS011;51482;47.014;7.652;2022-08-25T07:18:59;4.65;;;4.25;;
64950;SDS011;51482;47.014;7.652;2022-08-25T07:21:26;6.28;;;4.90;;
64950;SDS011;51482;47.014;7.652;2022-08-25T07:23:53;5.20;;;4.80;;
64950;SDS011;51482;47.014;7.652;2022-08-25T07:26:20;7.05;;;4.40;;
64950;SDS011;51482;47.014;7.652;2022-08-25T07:28:49;7.95;;;4.43;;
64950;SDS011;51482;47.014;7.652;2022-08-25T07:31:14;5.00;;;4.60;;
64950;SDS011;51482;47.014;7.652;2022-08-25T07:33:41;11.48;;;4.88;;
64950;SDS011;51482;47.014;7.652;2022-08-25T07:36:27;5.05;;;4.55;;
64950;SDS011;51482;47.014;7.652;2022-08-25T07:38:53;4.63;;;4.03;;
64950;SDS011;51482;47.014;7.652;2022-08-25T07:41:19;4.85;;;4.22;;
64950;SDS011;51482;47.014;7.652;2022-08-25T07:43:44;4.75;;;4.32;;
64950;SDS011;51482;47.014;7.652;2022-08-25T07:46:11;4.28;;;3.92;;
64950;SDS011;51482;47.014;7.652;2022-08-25T07:48:37;4.72;;;4.20;;
64950;SDS011;51482;47.014;7.652;2022-08-25T07:51:06;4.82;;;4.13;;
64950;SDS011;51482;47.014;7.652;2022-08-25T07:53:38;9.35;;;4.47;;
64950;SDS011;51482;47.014;7.652;2022-08-25T07:56:08;6.05;;;4.20;;
64950;SDS011;51482;47.014;7.652;2022-08-25T07:58:37;4.50;;;4.10;;
64950;SDS011;51482;47.014;7.652;2022-08-25T08:01:04;5.38;;;4.13;;
64950;SDS011;51482;47.014;7.652;2022-08-25T08:03:30;5.18;;;4.57;;
64950;SDS011;51482;47.014;7.652;2022-08-25T08:05:58;4.40;;;4.00;;
64950;SDS011;51482;47.014;7.652;2022-08-25T08:08:30;5.20;;;3.88;;
64950;SDS011;51482;47.014;7.652;2022-08-25T08:10:56;4.43;;;4.03;;
64950;SDS011;51482;47.014;7.652;2022-08-25T08:13:22;5.18;;;4.68;;
64950;SDS011;51482;47.014;7.652;2022-08-25T08:15:47;4.95;;;4.22;;
64950;SDS011;51482;47.014;7.652;2022-08-25T08:18:13;4.47;;;3.70;;
64950;SDS011;51482;47.014;7.652;2022-08-25T08:20:39;4.40;;;4.00;;
64950;SDS011;51482;47.014;7.652;2022-08-25T08:23:08;5.03;;;4.00;;
64950;SDS011;51482;47.014;7.652;2022-08-25T08:25:34;4.50;;;3.88;;
64950;SDS011;51482;47.014;7.652;2022-08-25T08:28:00;5.90;;;4.70;;
64950;SDS011;51482;47.014;7.652;2022-08-25T08:30:25;5.47;;;4.82;;
64950;SDS011;51482;47.014;7.652;2022-08-25T08:32:51;4.38;;;3.95;;
64950;SDS011;51482;47.014;7.652;2022-08-25T08:35:17;5.82;;;4.20;;
64950;SDS011;51482;47.014;7.652;2022-08-25T08:37:43;6.43;;;4.40;;
64950;SDS011;51482;47.014;7.652;2022-08-25T08:40:09;5.28;;;4.28;;
64950;SDS011;51482;47.014;7.652;2022-08-25T08:45:21;4.50;;;3.92;;
64950;SDS011;51482;47.014;7.652;2022-08-25T08:50:42;4.00;;;3.70;;
64950;SDS011;51482;47.014;7.652;2022-08-25T08:55:39;6.00;;;4.07;;
64950;SDS011;51482;47.014;7.652;2022-08-25T08:58:21;4.80;;;4.32;;
64950;SDS011;51482;47.014;7.652;2022-08-25T09:00:51;4.70;;;4.30;;
64950;SDS011;51482;47.014;7.652;2022-08-25T09:03:32;4.40;;;4.10;;
64950;SDS011;51482;47.014;7.652;2022-08-25T09:06:03;4.35;;;4.00;;
64950;SDS011;51482;47.014;7.652;2022-08-25T09:08:32;4.60;;;4.20;;
64950;SDS011;51482;47.014;7.652;2022-08-25T09:11:01;4.20;;;3.50;;
64950;SDS011;51482;47.014;7.652;2022-08-25T09:13:45;6.63;;;3.90;;
64950;SDS011;51482;47.014;7.652;2022-08-25T09:16:31;6.97;;;4.30;;
64950;SDS011;51482;47.014;7.652;2022-08-25T09:24:54;5.43;;;3.80;;
64950;SDS011;51482;47.014;7.652;2022-08-25T09:28:07;6.75;;;4.38;;
64950;SDS011;51482;47.014;7.652;2022-08-25T09:31:04;3.67;;;3.38;;
64950;SDS011;51482;47.014;7.652;2022-08-25T09:33:44;4.38;;;4.03;;
64950;SDS011;51482;47.014;7.652;2022-08-25T09:36:09;3.92;;;3.60;;
64950;SDS011;51482;47.014;7.652;2022-08-25T09:38:35;5.85;;;4.22;;
64950;SDS011;51482;47.014;7.652;2022-08-25T09:41:02;4.25;;;3.83;;
64950;SDS011;51482;47.014;7.652;2022-08-25T09:43:32;4.75;;;3.90;;
64950;SDS011;51482;47.014;7.652;2022-08-25T09:46:10;6.65;;;4.07;;
64950;SDS011;51482;47.014;7.652;2022-08-25T09:48:44;4.38;;;3.85;;
64950;SDS011;51482;47.014;7.652;2022-08-25T09:56:25;5.20;;;3.75;;
64950;SDS011;51482;47.014;7.652;2022-08-25T09:58:53;4.78;;;3.90;;
64950;SDS011;51482;47.014;7.652;2022-08-25T10:01:21;4.05;;;3.60;;
64950;SDS011;51482;47.014;7.652;2022-08-25T10:03:58;4.35;;;3.95;;
64950;SDS011;51482;47.014;7.652;2022-08-25T10:06:27;3.78;;;3.47;;
64950;SDS011;51482;47.014;7.652;2022-08-25T10:09:07;5.68;;;3.75;;
64950;SDS011;51482;47.014;7.652;2022-08-25T10:11:39;4.55;;;3.80;;
64950;SDS011;51482;47.014;7.652;2022-08-25T10:16:45;4.82;;;4.00;;
64950;SDS011;51482;47.014;7.652;2022-08-25T10:19:21;4.47;;;4.07;;
64950;SDS011;51482;47.014;7.652;2022-08-25T10:22:03;5.53;;;3.97;;
64950;SDS011;51482;47.014;7.652;2022-08-25T10:24:49;6.13;;;4.13;;
64950;SDS011;51482;47.014;7.652;2022-08-25T10:27:18;6.07;;;3.60;;
64950;SDS011;51482;47.014;7.652;2022-08-25T10:30:07;4.45;;;3.53;;
64950;SDS011;51482;47.014;7.652;2022-08-25T10:36:08;4.20;;;3.50;;
64950;SDS011;51482;47.014;7.652;2022-08-25T10:38:44;6.13;;;3.78;;
64950;SDS011;51482;47.014;7.652;2022-08-25T10:41:23;5.03;;;3.50;;
64950;SDS011;51482;47.014;7.652;2022-08-25T10:44:06;5.55;;;3.70;;
64950;SDS011;51482;47.014;7.652;2022-08-25T10:47:16;4.00;;;3.60;;
64950;SDS011;51482;47.014;7.652;2022-08-25T10:49:47;6.18;;;3.40;;
64950;SDS011;51482;47.014;7.652;2022-08-25T10:55:09;4.18;;;3.13;;
64950;SDS011;51482;47.014;7.652;2022-08-25T10:57:50;3.78;;;3.47;;
64950;SDS011;51482;47.014;7.652;2022-08-25T11:00:32;5.40;;;3.30;;
64950;SDS011;51482;47.014;7.652;2022-08-25T11:05:40;5.40;;;3.13;;
64950;SDS011;51482;47.014;7.652;2022-08-25T11:08:14;3.55;;;3.25;;
64950;SDS011;51482;47.014;7.652;2022-08-25T11:10:51;3.75;;;3.28;;
64950;SDS011;51482;47.014;7.652;2022-08-25T11:13:36;3.80;;;3.30;;
64950;SDS011;51482;47.014;7.652;2022-08-25T11:16:09;3.40;;;3.10;;
64950;SDS011;51482;47.014;7.652;2022-08-25T11:18:49;6.25;;;3.05;;
64950;SDS011;51482;47.014;7.652;2022-08-25T11:21:43;4.18;;;3.30;;
64950;SDS011;51482;47.014;7.652;2022-08-25T11:27:11;4.22;;;3.25;;
64950;SDS011;51482;47.014;7.652;2022-08-25T11:29:48;4.45;;;3.22;;
64950;SDS011;51482;47.014;7.652;2022-08-25T11:32:22;3.47;;;3.00;;
64950;SDS011;51482;47.014;7.652;2022-08-25T11:34:49;3.60;;;3.30;;
64950;SDS011;51482;47.014;7.652;2022-08-25T11:37:20;3.83;;;2.95;;
64950;SDS011;51482;47.014;7.652;2022-08-25T11:42:45;3.25;;;2.90;;
64950;SDS011;51482;47.014;7.652;2022-08-25T11:51:10;3.05;;;2.85;;
64950;SDS011;51482;47.014;7.652;2022-08-25T11:53:51;3.20;;;3.00;;
64950;SDS011;51482;47.014;7.652;2022-08-25T11:56:35;3.28;;;3.00;;
64950;SDS011;51482;47.014;7.652;2022-08-25T11:59:02;3.42;;;3.05;;
64950;SDS011;51482;47.014;7.652;2022-08-25T12:07:15;3.72;;;2.70;;
64950;SDS011;51482;47.014;7.652;2022-08-25T12:09:30;3.10;;;2.80;;
64950;SDS011;51482;47.014;7.652;2022-08-25T12:11:57;2.83;;;2.63;;
64950;SDS011;51482;47.014;7.652;2022-08-25T12:19:24;4.80;;;2.88;;
64950;SDS011;51482;47.014;7.652;2022-08-25T12:21:51;2.75;;;2.55;;
64950;SDS011;51482;47.014;7.652;2022-08-25T12:29:41;2.75;;;2.50;;
64950;SDS011;51482;47.014;7.652;2022-08-25T12:32:25;2.90;;;2.58;;
64950;SDS011;51482;47.014;7.652;2022-08-25T12:37:58;3.30;;;2.90;;
64950;SDS011;51482;47.014;7.652;2022-08-25T12:43:24;2.38;;;2.22;;
64950;SDS011;51482;47.014;7.652;2022-08-25T12:45:54;2.40;;;2.30;;
64950;SDS011;51482;47.014;7.652;2022-08-25T12:48:56;3.67;;;2.80;;
64950;SDS011;51482;47.014;7.652;2022-08-25T12:51:27;3.38;;;2.45;;
64950;SDS011;51482;47.014;7.652;2022-08-25T12:56:56;2.53;;;2.30;;
64950;SDS011;51482;47.014;7.652;2022-08-25T12:59:48;4.28;;;2.88;;
64950;SDS011;51482;47.014;7.652;2022-08-25T13:02:40;5.28;;;2.40;;
64950;SDS011;51482;47.014;7.652;2022-08-25T13:10:47;2.40;;;2.20;;
64950;SDS011;51482;47.014;7.652;2022-08-25T13:16:03;2.28;;;2.17;;
64950;SDS011;51482;47.014;7.652;2022-08-25T13:18:32;2.78;;;2.50;;
64950;SDS011;51482;47.014;7.652;2022-08-25T13:21:18;2.78;;;2.58;;
64950;SDS011;51482;47.014;7.652;2022-08-25T13:23:52;2.92;;;2.50;;
64950;SDS011;51482;47.014;7.652;2022-08-25T13:26:24;2.83;;;2.47;;
64950;SDS011;51482;47.014;7.652;2022-08-25T13:28:54;5.82;;;2.90;;
64950;SDS011;51482;47.014;7.652;2022-08-25T13:31:23;3.80;;;2.20;;
64950;SDS011;51482;47.014;7.652;2022-08-25T13:36:35;2.50;;;2.25;;
64950;SDS011;51482;47.014;7.652;2022-08-25T13:39:26;2.45;;;2.13;;
64950;SDS011;51482;47.014;7.652;2022-08-25T13:41:53;2.42;;;2.17;;
64950;SDS011;51482;47.014;7.652;2022-08-25T13:44:21;2.50;;;2.30;;
64950;SDS011;51482;47.014;7.652;2022-08-25T13:47:08;2.65;;;2.45;;
64950;SDS011;51482;47.014;7.652;2022-08-25T13:50:13;5.72;;;2.53;;
64950;SDS011;51482;47.014;7.652;2022-08-25T13:55:28;2.65;;;2.45;;
64950;SDS011;51482;47.014;7.652;2022-08-25T13:58:14;2.78;;;2.58;;
64950;SDS011;51482;47.014;7.652;2022-08-25T14:00:44;4.35;;;2.50;;
64950;SDS011;51482;47.014;7.652;2022-08-25T14:03:29;2.70;;;2.40;;
64950;SDS011;51482;47.014;7.652;2022-08-25T14:13:34;5.13;;;3.20;;
64950;SDS011;51482;47.014;7.652;2022-08-25T14:18:47;2.65;;;2.50;;
64950;SDS011;51482;47.014;7.652;2022-08-25T14:21:15;4.03;;;2.17;;
64950;SDS011;51482;47.014;7.652;2022-08-25T14:23:44;5.63;;;2.42;;
64950;SDS011;51482;47.014;7.652;2022-08-25T14:26:10;4.25;;;2.33;;
64950;SDS011;51482;47.014;7.652;2022-08-25T14:28:35;2.65;;;2.28;;
64950;SDS011;51482;47.014;7.652;2022-08-25T14:31:09;2.60;;;2.40;;
64950;SDS011;51482;47.014;7.652;2022-08-25T14:33:57;4.82;;;2.50;;
64950;SDS011;51482;47.014;7.652;2022-08-25T14:36:25;2.60;;;2.40;;
64950;SDS011;51482;47.014;7.652;2022-08-25T14:38:53;6.28;;;2.70;;
64950;SDS011;51482;47.014;7.652;2022-08-25T14:41:18;2.67;;;2.40;;
64950;SDS011;51482;47.014;7.652;2022-08-25T14:43:44;4.15;;;2.30;;
64950;SDS011;51482;47.014;7.652;2022-08-25T14:46:13;2.80;;;2.60;;
64950;SDS011;51482;47.014;7.652;2022-08-25T14:48:44;2.83;;;2.40;;
64950;SDS011;51482;47.014;7.652;2022-08-25T14:51:13;3.15;;;2.55;;
64950;SDS011;51482;47.014;7.652;2022-08-25T14:53:40;2.67;;;2.47;;
64950;SDS011;51482;47.014;7.652;2022-08-25T14:56:07;4.35;;;2.50;;
64950;SDS011;51482;47.014;7.652;2022-08-25T14:58:33;2.30;;;2.20;;
64950;SDS011;51482;47.014;7.652;2022-08-25T15:00:59;3.55;;;2.45;;
64950;SDS011;51482;47.014;7.652;2022-08-25T15:03:35;2.65;;;2.42;;
64950;SDS011;51482;47.014;7.652;2022-08-25T15:06:02;3.20;;;2.58;;
64950;SDS011;51482;47.014;7.652;2022-08-25T15:08:29;4.43;;;2.38;;
64950;SDS011;51482;47.014;7.652;2022-08-25T15:11:14;3.90;;;2.63;;
64950;SDS011;51482;47.014;7.652;2022-08-25T15:13:40;4.22;;;2.80;;
64950;SDS011;51482;47.014;7.652;2022-08-25T15:16:19;4.90;;;2.60;;
64950;SDS011;51482;47.014;7.652;2022-08-25T15:18:48;2.92;;;2.40;;
64950;SDS011;51482;47.014;7.652;2022-08-25T15:21:13;2.28;;;2.15;;
64950;SDS011;51482;47.014;7.652;2022-08-25T15:23:39;2.95;;;2.10;;
64950;SDS011;51482;47.014;7.652;2022-08-25T15:26:05;2.55;;;2.35;;
64950;SDS011;51482;47.014;7.652;2022-08-25T15:28:41;3.88;;;2.50;;
64950;SDS011;51482;47.014;7.652;2022-08-25T15:31:12;3.05;;;2.53;;
64950;SDS011;51482;47.014;7.652;2022-08-25T15:33:39;2.75;;;2.40;;
64950;SDS011;51482;47.014;7.652;2022-08-25T15:36:06;5.25;;;2.60;;
64950;SDS011;51482;47.014;7.652;2022-08-25T15:38:35;2.70;;;2.47;;
64950;SDS011;51482;47.014;7.652;2022-08-25T15:41:01;3.92;;;2.67;;
64950;SDS011;51482;47.014;7.652;2022-08-25T15:43:27;3.58;;;2.72;;
64950;SDS011;51482;47.014;7.652;2022-08-25T15:45:53;2.55;;;2.15;;
64950;SDS011;51482;47.014;7.652;2022-08-25T15:48:19;2.78;;;2.53;;
64950;SDS011;51482;47.014;7.652;2022-08-25T15:50:44;4.75;;;2.50;;
64950;SDS011;51482;47.014;7.652;2022-08-25T15:53:11;3.55;;;2.38;;
64950;SDS011;51482;47.014;7.652;2022-08-25T15:55:37;3.25;;;2.42;;
64950;SDS011;51482;47.014;7.652;2022-08-25T15:58:04;3.88;;;2.67;;
64950;SDS011;51482;47.014;7.652;2022-08-25T16:00:29;2.90;;;2.60;;
64950;SDS011;51482;47.014;7.652;2022-08-25T16:02:55;4.20;;;2.83;;
64950;SDS011;51482;47.014;7.652;2022-08-25T16:05:21;2.63;;;2.42;;
64950;SDS011;51482;47.014;7.652;2022-08-25T16:07:47;3.90;;;2.60;;
64950;SDS011;51482;47.014;7.652;2022-08-25T16:10:12;3.60;;;2.42;;
64950;SDS011;51482;47.014;7.652;2022-08-25T16:12:39;3.15;;;2.60;;
64950;SDS011;51482;47.014;7.652;2022-08-25T16:15:05;2.60;;;2.40;;
64950;SDS011;51482;47.014;7.652;2022-08-25T16:17:31;5.00;;;2.67;;
64950;SDS011;51482;47.014;7.652;2022-08-25T16:19:56;5.22;;;2.90;;
64950;SDS011;51482;47.014;7.652;2022-08-25T16:22:22;4.65;;;2.70;;
64950;SDS011;51482;47.014;7.652;2022-08-25T16:24:48;2.90;;;2.63;;
64950;SDS011;51482;47.014;7.652;2022-08-25T16:27:13;3.17;;;2.45;;
64950;SDS011;51482;47.014;7.652;2022-08-25T16:29:40;5.13;;;2.70;;
64950;SDS011;51482;47.014;7.652;2022-08-25T16:32:08;3.35;;;3.05;;
64950;SDS011;51482;47.014;7.652;2022-08-25T16:34:35;6.63;;;2.80;;